Terminal Aerodrome Forecast
Issued by NWS

Home | Current Version | Previous Version | Text Only | Print | Product List | Glossary On
Versions: 1 2 3 4 5 6 7 8 9 10 11 12 13 14 15 16 17 18 19 20 21 22 23 24 25 26 27 28 29
790
FTUS43 KDLH 222342
TAFHIB
TAF
KHIB 222342Z 2300/2324 17012KT P6SM SCT200
     FM230200 15009KT P6SM VCSH SCT040 OVC060
     FM230600 17010KT 5SM -SHSN BKN035 OVC040
      TEMPO 2306/2308 2SM -SN BKN025
     FM231200 16008G14KT P6SM BKN030
     FM231900 17010G18KT 5SM -RA BKN018 OVC025=

USA.gov is the U.S. government's official web portal to all federal, state and local government web resources and services.